Weather History for Mammoth, CA

Change the Weather History Date:

Monday, July 1, 2013

  Actual Average Record
Temperature  
Mean Temperature 22 °C -  
Max Temperature 33 °C 24 °C 32 °C (2013)
Min Temperature 12 °C 16 °C 0 °C (2010)
Cooling Degree Days 7    
Growing Degree Days 22 (Base 50)    
Moisture  
Dew Point 2 °C    
Average Humidity 27    
Maximum Humidity 41    
Minimum Humidity 12    
Precipitation  
Precipitation 0.00 mm - - ()
Sea Level Pressure  
Sea Level Pressure 1027 hPa    
Wind  
Wind Speed 10 km/h (West)    
Max Wind Speed 47 km/h    
Max Gust Speed 69 km/h    
Visibility 16 kilometers    
Events      
Averages and records for this station are not official NWS values.
T = Trace of Precipitation, MM = Missing Value Source: NWS Daily Summary

Daily Weather History Graph

Daily Weather History Graph

Search for Another Location

Airport:

Trip Planner

Search our weather history database for the weather conditions in past years. The results will help you decide how hot, cold, wet, or windy it might be!

Date:

Astronomy

Jul. 01, 2013 Rise Set
Actual Time 5:37 AM PDT 8:20 PM PDT
Civil Twilight 5:06 AM PDT 8:51 PM PDT
Nautical Twilight 4:27 AM PDT 9:30 PM PDT
Astronomical Twilight 3:44 AM PDT 10:14 PM PDT
Moon 1:05 AM PDT (7/1) 2:44 PM PDT (7/1)
Length of Visible Light 15h 45m
Length of Day
14h 42m
Waning Crescent, 34% of the Moon is Illuminated
Jul 1
Waning Crescent
Jul 8
New
Jul 15
First Quarter
Jul 22
Full
Jul 29
Last Quarter

Hourly Weather History & Observations

Time (PDT) Temp. Dew Point Humidity Pressure Visibility Wind Dir Wind Speed Gust Speed Precip Events Conditions
12:15 AM 18.0 °C 2.0 °C 34% 1025.6 hPa 16.1 km SW 7.4 km/h / 2.1 m/s - N/A   Clear
12:35 AM 17.0 °C 1.0 °C 34% 1025.6 hPa 16.1 km SW 5.6 km/h / 1.5 m/s - N/A   Clear
12:55 AM 17.0 °C 1.0 °C 34% 1025.6 hPa 16.1 km Calm Calm - N/A   Clear
1:15 AM 16.0 °C 0.0 °C 34% 1026.0 hPa 16.1 km West 13.0 km/h / 3.6 m/s - N/A   Clear
1:35 AM 15.0 °C 1.0 °C 39% 1026.0 hPa 16.1 km North 5.6 km/h / 1.5 m/s - N/A   Clear
1:55 AM 15.0 °C 1.0 °C 39% 1026.0 hPa 16.1 km NW 7.4 km/h / 2.1 m/s - N/A   Clear
2:15 AM 15.0 °C 0.0 °C 36% 1026.0 hPa 16.1 km North 5.6 km/h / 1.5 m/s - N/A   Clear
2:35 AM 14.0 °C 0.0 °C 38% 1026.0 hPa 16.1 km NW 9.3 km/h / 2.6 m/s - N/A   Clear
2:55 AM 14.0 °C 0.0 °C 38% 1026.0 hPa 16.1 km Calm Calm - N/A   Clear
3:15 AM 15.0 °C 0.0 °C 36% 1026.0 hPa 16.1 km Calm Calm - N/A   Clear
3:35 AM 13.0 °C -1.0 °C 38% 1026.0 hPa 16.1 km NW 7.4 km/h / 2.1 m/s - N/A   Clear
3:55 AM 15.0 °C -1.0 °C 34% 1026.0 hPa 16.1 km West 18.5 km/h / 5.1 m/s - N/A   Clear
4:15 AM 16.0 °C -1.0 °C 31% 1026.0 hPa 16.1 km North 5.6 km/h / 1.5 m/s - N/A   Clear
4:35 AM 15.0 °C -1.0 °C 34% 1026.0 hPa 16.1 km Calm Calm - N/A   Clear
4:55 AM 15.0 °C -1.0 °C 34% 1026.3 hPa 16.1 km NW 11.1 km/h / 3.1 m/s - N/A   Clear
5:15 AM 14.0 °C -1.0 °C 36% 1026.3 hPa 16.1 km NW 5.6 km/h / 1.5 m/s - N/A   Clear
5:35 AM 12.0 °C -1.0 °C 41% 1026.3 hPa 16.1 km North 7.4 km/h / 2.1 m/s - N/A   Clear
5:55 AM 13.0 °C -1.0 °C 38% 1026.3 hPa 16.1 km NW 7.4 km/h / 2.1 m/s - N/A   Clear
6:15 AM 14.0 °C -1.0 °C 36% 1026.3 hPa 16.1 km Calm Calm - N/A   Clear
6:35 AM 13.0 °C 0.0 °C 41% 1026.6 hPa 16.1 km Calm Calm - N/A   Clear
6:55 AM 16.0 °C 1.0 °C 36% 1026.6 hPa 16.1 km Calm Calm - N/A   Clear
7:15 AM 17.0 °C 1.0 °C 34% 1026.6 hPa 16.1 km NNW 5.6 km/h / 1.5 m/s - N/A   Clear
7:35 AM 18.0 °C 1.0 °C 32% 1026.6 hPa 16.1 km Calm Calm - N/A   Clear
7:55 AM 21.0 °C 1.0 °C 27% 1026.6 hPa 16.1 km Calm Calm - N/A   Clear
8:15 AM 23.0 °C 1.0 °C 23% 1026.6 hPa 16.1 km Calm Calm - N/A   Clear
8:35 AM 22.0 °C 4.0 °C 31% 1026.6 hPa 16.1 km SE 9.3 km/h / 2.6 m/s - N/A   Clear
8:55 AM 24.0 °C 4.0 °C 27% 1026.6 hPa 16.1 km ESE 7.4 km/h / 2.1 m/s - N/A   Clear
9:15 AM 25.0 °C 3.0 °C 24% 1026.6 hPa 16.1 km ESE 9.3 km/h / 2.6 m/s - N/A   Clear
9:35 AM 27.0 °C 2.0 °C 20% 1026.6 hPa 16.1 km SE 9.3 km/h / 2.6 m/s - N/A   Clear
9:55 AM 28.0 °C 0.0 °C 16% 1026.6 hPa 16.1 km Calm Calm - N/A   Clear
10:15 AM 30.0 °C -1.0 °C 13% 1026.6 hPa 16.1 km SE 7.4 km/h / 2.1 m/s - N/A   Clear
10:35 AM 31.0 °C 0.0 °C 14% 1026.6 hPa 16.1 km ESE 7.4 km/h / 2.1 m/s - N/A   Clear
10:55 AM 31.0 °C 0.0 °C 14% 1026.6 hPa 16.1 km ESE 11.1 km/h / 3.1 m/s - N/A   Clear
11:15 AM 33.0 °C 0.0 °C 12% 1026.3 hPa 16.1 km ESE 11.1 km/h / 3.1 m/s - N/A   Scattered Clouds
11:35 AM 33.0 °C 0.0 °C 12% 1026.3 hPa 16.1 km ESE 11.1 km/h / 3.1 m/s - N/A   Unknown
11:55 AM 31.0 °C -1.0 °C 13% 1026.3 hPa 16.1 km East 5.6 km/h / 1.5 m/s - N/A   Unknown
12:15 PM 31.0 °C -1.0 °C 13% 1026.3 hPa 16.1 km NW 5.6 km/h / 1.5 m/s - N/A   Unknown
12:35 PM 32.0 °C 0.0 °C 13% 1026.3 hPa 16.1 km NW 5.6 km/h / 1.5 m/s - N/A   Unknown
12:55 PM 31.0 °C 1.0 °C 15% 1026.3 hPa 16.1 km West 27.8 km/h / 7.7 m/s 46.3 km/h / 12.9 m/s N/A   Clear
1:15 PM 29.0 °C 2.0 °C 18% 1026.3 hPa 16.1 km West 25.9 km/h / 7.2 m/s 38.9 km/h / 10.8 m/s N/A   Clear
1:35 PM 29.0 °C 1.0 °C 16% 1027.0 hPa 16.1 km SW 31.5 km/h / 8.7 m/s 40.7 km/h / 11.3 m/s N/A   Clear
1:55 PM 26.0 °C 3.0 °C 23% 1026.6 hPa 16.1 km SSW 46.3 km/h / 12.9 m/s 68.5 km/h / 19.0 m/s N/A   Scattered Clouds
2:15 PM 26.0 °C 4.0 °C 24% 1026.6 hPa 16.1 km SSW 40.7 km/h / 11.3 m/s 57.4 km/h / 15.9 m/s N/A   Clear
2:35 PM 27.0 °C 3.0 °C 21% 1026.6 hPa 16.1 km SW 33.3 km/h / 9.3 m/s 55.6 km/h / 15.4 m/s N/A   Scattered Clouds
2:55 PM 29.0 °C 2.0 °C 18% 1026.3 hPa 16.1 km SW 27.8 km/h / 7.7 m/s 46.3 km/h / 12.9 m/s N/A   Clear
3:15 PM 31.0 °C 1.0 °C 15% 1026.3 hPa 16.1 km SSW 24.1 km/h / 6.7 m/s 37.0 km/h / 10.3 m/s N/A   Clear
3:35 PM 31.0 °C 1.0 °C 15% 1026.3 hPa 16.1 km NNW 16.7 km/h / 4.6 m/s 31.5 km/h / 8.7 m/s N/A   Clear
3:55 PM 31.0 °C 1.0 °C 15% 1026.3 hPa 16.1 km North 7.4 km/h / 2.1 m/s - N/A   Clear
4:15 PM 29.0 °C 1.0 °C 16% 1026.0 hPa 16.1 km West 5.6 km/h / 1.5 m/s - N/A   Mostly Cloudy
4:35 PM 30.0 °C 1.0 °C 15% 1026.0 hPa 16.1 km WNW 14.8 km/h / 4.1 m/s - N/A   Scattered Clouds
4:55 PM 31.0 °C 1.0 °C 15% 1026.0 hPa 16.1 km WSW 16.7 km/h / 4.6 m/s 37.0 km/h / 10.3 m/s N/A   Scattered Clouds
5:15 PM 28.0 °C 3.0 °C 20% 1025.6 hPa 16.1 km SSW 25.9 km/h / 7.2 m/s 37.0 km/h / 10.3 m/s N/A   Scattered Clouds
5:35 PM 28.0 °C 3.0 °C 20% 1026.0 hPa 16.1 km SSW 31.5 km/h / 8.7 m/s 46.3 km/h / 12.9 m/s N/A   Clear
5:55 PM 28.0 °C 3.0 °C 20% 1025.6 hPa 16.1 km SSW 35.2 km/h / 9.8 m/s 48.2 km/h / 13.4 m/s N/A   Scattered Clouds
6:15 PM 28.0 °C 3.0 °C 20% 1026.3 hPa 16.1 km SSW 14.8 km/h / 4.1 m/s 33.3 km/h / 9.3 m/s N/A   Scattered Clouds
6:35 PM 27.0 °C 3.0 °C 21% 1026.3 hPa 16.1 km SSW 24.1 km/h / 6.7 m/s 37.0 km/h / 10.3 m/s N/A   Mostly Cloudy
6:55 PM 26.0 °C 4.0 °C 24% 1026.6 hPa 16.1 km NW 18.5 km/h / 5.1 m/s 33.3 km/h / 9.3 m/s N/A   Mostly Cloudy
7:15 PM 26.0 °C 4.0 °C 24% 1026.6 hPa 16.1 km WNW 25.9 km/h / 7.2 m/s - N/A   Scattered Clouds
7:35 PM 26.0 °C 5.0 °C 26% 1027.0 hPa 16.1 km West 11.1 km/h / 3.1 m/s 31.5 km/h / 8.7 m/s N/A   Scattered Clouds
7:55 PM 24.0 °C 6.0 °C 31% 1027.3 hPa 16.1 km NNW 13.0 km/h / 3.6 m/s - N/A   Overcast
8:15 PM 25.0 °C 6.0 °C 29% 1027.7 hPa 16.1 km NW 14.8 km/h / 4.1 m/s 31.5 km/h / 8.7 m/s N/A   Overcast
8:35 PM 23.0 °C 5.0 °C 31% 1029.0 hPa 16.1 km NE 22.2 km/h / 6.2 m/s 27.8 km/h / 7.7 m/s N/A   Mostly Cloudy
8:55 PM 22.0 °C 5.0 °C 33% 1029.3 hPa 16.1 km NNE 16.7 km/h / 4.6 m/s 50.0 km/h / 13.9 m/s N/A   Scattered Clouds
9:15 PM 22.0 °C 5.0 °C 33% 1029.3 hPa 16.1 km WSW 7.4 km/h / 2.1 m/s - N/A   Scattered Clouds
9:35 PM 22.0 °C 5.0 °C 33% 1029.3 hPa 16.1 km SW 14.8 km/h / 4.1 m/s - N/A   Clear
9:55 PM 22.0 °C 5.0 °C 33% 1029.7 hPa 16.1 km SW 11.1 km/h / 3.1 m/s - N/A   Clear
10:15 PM 22.0 °C 5.0 °C 33% 1030.0 hPa 16.1 km WSW 9.3 km/h / 2.6 m/s - N/A   Clear
10:35 PM 20.0 °C 4.0 °C 35% 1030.0 hPa 16.1 km Calm Calm - N/A   Clear
10:55 PM 20.0 °C 5.0 °C 37% 1030.0 hPa 16.1 km WNW 7.4 km/h / 2.1 m/s - N/A   Clear
11:15 PM 20.0 °C 5.0 °C 37% 1030.4 hPa 16.1 km West 13.0 km/h / 3.6 m/s - N/A   Clear
11:35 PM 20.0 °C 5.0 °C 37% 1030.4 hPa 16.1 km NNW 5.6 km/h / 1.5 m/s - N/A   Clear
11:55 PM 20.0 °C 5.0 °C 37% 1030.4 hPa 16.1 km WNW 9.3 km/h / 2.6 m/s - N/A   Clear